sensor_id;sensor_type;location;lat;lon;timestamp;P1;durP1;ratioP1;P2;durP2;ratioP2
22628;SDS011;11481;53.694;9.910;2023-12-28T00:02:16;4.72;;;2.10;;
22628;SDS011;11481;53.694;9.910;2023-12-28T00:04:44;5.43;;;1.73;;
22628;SDS011;11481;53.694;9.910;2023-12-28T00:07:11;4.72;;;2.10;;
22628;SDS011;11481;53.694;9.910;2023-12-28T00:09:38;3.92;;;2.10;;
22628;SDS011;11481;53.694;9.910;2023-12-28T00:12:05;4.95;;;2.45;;
22628;SDS011;11481;53.694;9.910;2023-12-28T00:14:33;4.40;;;2.10;;
22628;SDS011;11481;53.694;9.910;2023-12-28T00:16:59;7.22;;;2.03;;
22628;SDS011;11481;53.694;9.910;2023-12-28T00:19:26;6.70;;;2.45;;
22628;SDS011;11481;53.694;9.910;2023-12-28T00:21:54;5.88;;;2.33;;
22628;SDS011;11481;53.694;9.910;2023-12-28T00:24:21;4.82;;;1.95;;
22628;SDS011;11481;53.694;9.910;2023-12-28T00:26:48;4.22;;;2.10;;
22628;SDS011;11481;53.694;9.910;2023-12-28T00:29:15;6.05;;;1.92;;
22628;SDS011;11481;53.694;9.910;2023-12-28T00:31:42;4.55;;;2.40;;
22628;SDS011;11481;53.694;9.910;2023-12-28T00:34:09;4.88;;;2.38;;
22628;SDS011;11481;53.694;9.910;2023-12-28T00:36:36;3.58;;;2.45;;
22628;SDS011;11481;53.694;9.910;2023-12-28T00:39:03;3.65;;;2.22;;
22628;SDS011;11481;53.694;9.910;2023-12-28T00:41:30;4.72;;;2.17;;
22628;SDS011;11481;53.694;9.910;2023-12-28T00:43:57;10.80;;;2.30;;
22628;SDS011;11481;53.694;9.910;2023-12-28T00:46:24;4.82;;;2.78;;
22628;SDS011;11481;53.694;9.910;2023-12-28T00:48:51;4.63;;;2.33;;
22628;SDS011;11481;53.694;9.910;2023-12-28T00:51:18;9.02;;;2.70;;
22628;SDS011;11481;53.694;9.910;2023-12-28T00:53:46;5.15;;;2.50;;
22628;SDS011;11481;53.694;9.910;2023-12-28T00:56:12;6.32;;;2.50;;
22628;SDS011;11481;53.694;9.910;2023-12-28T00:58:40;4.63;;;2.08;;
22628;SDS011;11481;53.694;9.910;2023-12-28T01:01:07;7.68;;;2.70;;
22628;SDS011;11481;53.694;9.910;2023-12-28T01:03:35;4.10;;;2.42;;
22628;SDS011;11481;53.694;9.910;2023-12-28T01:06:03;7.22;;;2.83;;
22628;SDS011;11481;53.694;9.910;2023-12-28T01:08:33;7.25;;;2.22;;
22628;SDS011;11481;53.694;9.910;2023-12-28T01:11:03;3.58;;;2.22;;
22628;SDS011;11481;53.694;9.910;2023-12-28T01:13:30;4.82;;;2.38;;
22628;SDS011;11481;53.694;9.910;2023-12-28T01:15:57;8.07;;;2.70;;
22628;SDS011;11481;53.694;9.910;2023-12-28T01:18:25;3.50;;;2.13;;
22628;SDS011;11481;53.694;9.910;2023-12-28T01:20:52;6.10;;;2.70;;
22628;SDS011;11481;53.694;9.910;2023-12-28T01:23:19;5.53;;;2.72;;
22628;SDS011;11481;53.694;9.910;2023-12-28T01:25:46;4.93;;;2.80;;
22628;SDS011;11481;53.694;9.910;2023-12-28T01:28:13;5.03;;;2.70;;
22628;SDS011;11481;53.694;9.910;2023-12-28T01:30:40;6.65;;;2.80;;
22628;SDS011;11481;53.694;9.910;2023-12-28T01:33:07;5.68;;;2.92;;
22628;SDS011;11481;53.694;9.910;2023-12-28T01:35:34;4.65;;;2.63;;
22628;SDS011;11481;53.694;9.910;2023-12-28T01:38:00;8.90;;;3.65;;
22628;SDS011;11481;53.694;9.910;2023-12-28T01:40:28;5.07;;;2.83;;
22628;SDS011;11481;53.694;9.910;2023-12-28T01:42:55;8.82;;;2.97;;
22628;SDS011;11481;53.694;9.910;2023-12-28T01:45:22;5.95;;;2.55;;
22628;SDS011;11481;53.694;9.910;2023-12-28T01:47:49;5.20;;;2.83;;
22628;SDS011;11481;53.694;9.910;2023-12-28T01:50:18;8.77;;;3.05;;
22628;SDS011;11481;53.694;9.910;2023-12-28T01:52:46;5.00;;;2.83;;
22628;SDS011;11481;53.694;9.910;2023-12-28T01:55:15;7.72;;;3.00;;
22628;SDS011;11481;53.694;9.910;2023-12-28T01:57:42;5.05;;;3.13;;
22628;SDS011;11481;53.694;9.910;2023-12-28T02:00:09;4.80;;;2.83;;
22628;SDS011;11481;53.694;9.910;2023-12-28T02:02:38;7.25;;;2.88;;
22628;SDS011;11481;53.694;9.910;2023-12-28T02:05:05;9.93;;;2.97;;
22628;SDS011;11481;53.694;9.910;2023-12-28T02:07:33;5.85;;;2.92;;
22628;SDS011;11481;53.694;9.910;2023-12-28T02:10:03;8.77;;;3.08;;
22628;SDS011;11481;53.694;9.910;2023-12-28T02:12:30;5.45;;;2.80;;
22628;SDS011;11481;53.694;9.910;2023-12-28T02:14:57;7.28;;;3.00;;
22628;SDS011;11481;53.694;9.910;2023-12-28T02:20:03;5.40;;;2.65;;
22628;SDS011;11481;53.694;9.910;2023-12-28T02:22:33;7.47;;;2.90;;
22628;SDS011;11481;53.694;9.910;2023-12-28T02:27:41;4.50;;;2.55;;
22628;SDS011;11481;53.694;9.910;2023-12-28T02:30:16;4.15;;;2.70;;
22628;SDS011;11481;53.694;9.910;2023-12-28T02:35:35;4.75;;;3.33;;
22628;SDS011;11481;53.694;9.910;2023-12-28T02:38:06;7.53;;;2.97;;
22628;SDS011;11481;53.694;9.910;2023-12-28T02:40:38;5.05;;;3.08;;
22628;SDS011;11481;53.694;9.910;2023-12-28T02:43:07;6.40;;;3.13;;
22628;SDS011;11481;53.694;9.910;2023-12-28T02:45:35;7.85;;;3.17;;
22628;SDS011;11481;53.694;9.910;2023-12-28T02:48:02;6.68;;;3.03;;
22628;SDS011;11481;53.694;9.910;2023-12-28T02:50:31;8.05;;;3.10;;
22628;SDS011;11481;53.694;9.910;2023-12-28T02:52:59;6.15;;;3.38;;
22628;SDS011;11481;53.694;9.910;2023-12-28T02:55:27;5.85;;;2.85;;
22628;SDS011;11481;53.694;9.910;2023-12-28T02:57:56;6.43;;;3.28;;
22628;SDS011;11481;53.694;9.910;2023-12-28T03:00:28;6.50;;;2.90;;
22628;SDS011;11481;53.694;9.910;2023-12-28T03:02:56;7.88;;;2.80;;
22628;SDS011;11481;53.694;9.910;2023-12-28T03:05:23;9.13;;;3.28;;
22628;SDS011;11481;53.694;9.910;2023-12-28T03:07:50;5.57;;;2.95;;
22628;SDS011;11481;53.694;9.910;2023-12-28T03:10:17;8.52;;;3.40;;
22628;SDS011;11481;53.694;9.910;2023-12-28T03:12:44;10.82;;;4.13;;
22628;SDS011;11481;53.694;9.910;2023-12-28T03:15:12;4.43;;;3.28;;
22628;SDS011;11481;53.694;9.910;2023-12-28T03:17:39;6.43;;;2.90;;
22628;SDS011;11481;53.694;9.910;2023-12-28T03:20:08;6.55;;;3.60;;
22628;SDS011;11481;53.694;9.910;2023-12-28T03:22:36;8.18;;;3.78;;
22628;SDS011;11481;53.694;9.910;2023-12-28T03:25:03;6.68;;;3.70;;
22628;SDS011;11481;53.694;9.910;2023-12-28T03:27:31;6.70;;;3.30;;
22628;SDS011;11481;53.694;9.910;2023-12-28T03:29:58;8.75;;;3.15;;
22628;SDS011;11481;53.694;9.910;2023-12-28T03:32:25;5.47;;;3.10;;
22628;SDS011;11481;53.694;9.910;2023-12-28T03:34:52;7.15;;;3.40;;
22628;SDS011;11481;53.694;9.910;2023-12-28T03:37:19;8.45;;;3.38;;
22628;SDS011;11481;53.694;9.910;2023-12-28T03:39:46;10.40;;;3.22;;
22628;SDS011;11481;53.694;9.910;2023-12-28T03:42:13;6.32;;;3.25;;
22628;SDS011;11481;53.694;9.910;2023-12-28T03:44:41;5.82;;;3.13;;
22628;SDS011;11481;53.694;9.910;2023-12-28T03:47:08;4.88;;;2.75;;
22628;SDS011;11481;53.694;9.910;2023-12-28T03:49:34;7.32;;;3.10;;
22628;SDS011;11481;53.694;9.910;2023-12-28T03:52:01;5.60;;;3.30;;
22628;SDS011;11481;53.694;9.910;2023-12-28T03:54:28;8.98;;;3.40;;
22628;SDS011;11481;53.694;9.910;2023-12-28T03:56:56;7.93;;;3.20;;
22628;SDS011;11481;53.694;9.910;2023-12-28T03:59:24;6.68;;;3.75;;
22628;SDS011;11481;53.694;9.910;2023-12-28T04:01:51;5.30;;;2.90;;
22628;SDS011;11481;53.694;9.910;2023-12-28T04:04:18;6.38;;;3.08;;
22628;SDS011;11481;53.694;9.910;2023-12-28T04:06:44;7.03;;;3.47;;
22628;SDS011;11481;53.694;9.910;2023-12-28T04:09:12;6.90;;;3.30;;
22628;SDS011;11481;53.694;9.910;2023-12-28T04:11:39;5.45;;;3.63;;
22628;SDS011;11481;53.694;9.910;2023-12-28T04:14:06;7.72;;;3.67;;
22628;SDS011;11481;53.694;9.910;2023-12-28T04:16:33;7.00;;;3.72;;
22628;SDS011;11481;53.694;9.910;2023-12-28T04:19:00;6.35;;;3.25;;
22628;SDS011;11481;53.694;9.910;2023-12-28T04:21:27;8.00;;;3.67;;
22628;SDS011;11481;53.694;9.910;2023-12-28T04:23:54;9.00;;;3.88;;
22628;SDS011;11481;53.694;9.910;2023-12-28T04:26:20;7.20;;;3.75;;
22628;SDS011;11481;53.694;9.910;2023-12-28T04:28:47;10.25;;;3.63;;
22628;SDS011;11481;53.694;9.910;2023-12-28T04:31:14;6.43;;;3.45;;
22628;SDS011;11481;53.694;9.910;2023-12-28T04:33:41;8.32;;;3.13;;
22628;SDS011;11481;53.694;9.910;2023-12-28T04:36:09;7.78;;;3.70;;
22628;SDS011;11481;53.694;9.910;2023-12-28T04:38:35;5.97;;;3.38;;
22628;SDS011;11481;53.694;9.910;2023-12-28T04:41:04;5.05;;;3.38;;
22628;SDS011;11481;53.694;9.910;2023-12-28T04:43:31;6.40;;;3.17;;
22628;SDS011;11481;53.694;9.910;2023-12-28T04:46:02;8.20;;;3.65;;
22628;SDS011;11481;53.694;9.910;2023-12-28T04:48:31;5.07;;;2.88;;
22628;SDS011;11481;53.694;9.910;2023-12-28T04:51:01;10.60;;;4.13;;
22628;SDS011;11481;53.694;9.910;2023-12-28T04:53:29;7.65;;;3.17;;
22628;SDS011;11481;53.694;9.910;2023-12-28T04:55:56;4.75;;;2.80;;
22628;SDS011;11481;53.694;9.910;2023-12-28T04:58:23;5.97;;;3.15;;
22628;SDS011;11481;53.694;9.910;2023-12-28T05:00:50;9.52;;;3.42;;
22628;SDS011;11481;53.694;9.910;2023-12-28T05:03:17;6.00;;;3.35;;
22628;SDS011;11481;53.694;9.910;2023-12-28T05:05:44;5.18;;;3.08;;
22628;SDS011;11481;53.694;9.910;2023-12-28T05:08:11;9.05;;;3.47;;
22628;SDS011;11481;53.694;9.910;2023-12-28T05:10:38;4.63;;;2.90;;
22628;SDS011;11481;53.694;9.910;2023-12-28T05:13:05;5.18;;;3.00;;
22628;SDS011;11481;53.694;9.910;2023-12-28T05:15:32;6.28;;;3.20;;
22628;SDS011;11481;53.694;9.910;2023-12-28T05:17:59;5.05;;;3.00;;
22628;SDS011;11481;53.694;9.910;2023-12-28T05:20:26;4.82;;;3.08;;
22628;SDS011;11481;53.694;9.910;2023-12-28T05:22:53;7.15;;;3.30;;
22628;SDS011;11481;53.694;9.910;2023-12-28T05:25:20;6.95;;;3.28;;
22628;SDS011;11481;53.694;9.910;2023-12-28T05:27:47;8.35;;;3.17;;
22628;SDS011;11481;53.694;9.910;2023-12-28T05:30:14;5.50;;;3.20;;
22628;SDS011;11481;53.694;9.910;2023-12-28T05:32:41;8.65;;;3.13;;
22628;SDS011;11481;53.694;9.910;2023-12-28T05:35:08;8.00;;;3.30;;
22628;SDS011;11481;53.694;9.910;2023-12-28T05:37:35;8.07;;;2.97;;
22628;SDS011;11481;53.694;9.910;2023-12-28T05:40:01;8.90;;;3.35;;
22628;SDS011;11481;53.694;9.910;2023-12-28T05:42:29;8.65;;;3.53;;
22628;SDS011;11481;53.694;9.910;2023-12-28T05:44:56;9.63;;;3.28;;
22628;SDS011;11481;53.694;9.910;2023-12-28T05:47:23;7.85;;;3.30;;
22628;SDS011;11481;53.694;9.910;2023-12-28T05:49:50;6.55;;;3.50;;
22628;SDS011;11481;53.694;9.910;2023-12-28T05:52:20;7.35;;;3.20;;
22628;SDS011;11481;53.694;9.910;2023-12-28T05:54:47;8.20;;;3.03;;
22628;SDS011;11481;53.694;9.910;2023-12-28T05:57:17;4.57;;;2.67;;
22628;SDS011;11481;53.694;9.910;2023-12-28T05:59:44;6.93;;;3.70;;
22628;SDS011;11481;53.694;9.910;2023-12-28T06:02:11;9.35;;;3.80;;
22628;SDS011;11481;53.694;9.910;2023-12-28T06:04:39;8.60;;;3.20;;
22628;SDS011;11481;53.694;9.910;2023-12-28T06:07:07;7.03;;;3.33;;
22628;SDS011;11481;53.694;9.910;2023-12-28T06:09:34;6.05;;;3.35;;
22628;SDS011;11481;53.694;9.910;2023-12-28T06:12:00;10.98;;;3.70;;
22628;SDS011;11481;53.694;9.910;2023-12-28T06:14:27;7.38;;;3.45;;
22628;SDS011;11481;53.694;9.910;2023-12-28T06:16:54;8.43;;;3.45;;
22628;SDS011;11481;53.694;9.910;2023-12-28T06:19:22;7.57;;;3.80;;
22628;SDS011;11481;53.694;9.910;2023-12-28T06:21:49;6.05;;;3.35;;
22628;SDS011;11481;53.694;9.910;2023-12-28T06:24:16;7.38;;;3.20;;
22628;SDS011;11481;53.694;9.910;2023-12-28T06:26:43;6.05;;;3.10;;
22628;SDS011;11481;53.694;9.910;2023-12-28T06:29:10;6.40;;;3.25;;
22628;SDS011;11481;53.694;9.910;2023-12-28T06:31:37;8.70;;;3.50;;
22628;SDS011;11481;53.694;9.910;2023-12-28T06:34:06;6.30;;;3.00;;
22628;SDS011;11481;53.694;9.910;2023-12-28T06:36:33;7.88;;;3.60;;
22628;SDS011;11481;53.694;9.910;2023-12-28T06:39:00;8.13;;;3.30;;
22628;SDS011;11481;53.694;9.910;2023-12-28T06:41:28;7.05;;;3.60;;
22628;SDS011;11481;53.694;9.910;2023-12-28T06:43:55;7.28;;;3.47;;
22628;SDS011;11481;53.694;9.910;2023-12-28T06:46:22;7.40;;;2.90;;
22628;SDS011;11481;53.694;9.910;2023-12-28T06:48:49;4.85;;;2.80;;
22628;SDS011;11481;53.694;9.910;2023-12-28T06:51:17;6.93;;;3.22;;
22628;SDS011;11481;53.694;9.910;2023-12-28T06:53:47;5.97;;;3.00;;
22628;SDS011;11481;53.694;9.910;2023-12-28T06:56:16;8.25;;;3.10;;
22628;SDS011;11481;53.694;9.910;2023-12-28T06:58:44;5.80;;;3.03;;
22628;SDS011;11481;53.694;9.910;2023-12-28T07:01:11;8.23;;;2.97;;
22628;SDS011;11481;53.694;9.910;2023-12-28T07:03:39;7.30;;;3.40;;
22628;SDS011;11481;53.694;9.910;2023-12-28T07:06:07;8.05;;;3.13;;
22628;SDS011;11481;53.694;9.910;2023-12-28T07:08:35;6.90;;;3.00;;
22628;SDS011;11481;53.694;9.910;2023-12-28T07:11:03;6.32;;;2.90;;
22628;SDS011;11481;53.694;9.910;2023-12-28T07:13:31;8.70;;;3.08;;
22628;SDS011;11481;53.694;9.910;2023-12-28T07:15:58;8.45;;;3.28;;
22628;SDS011;11481;53.694;9.910;2023-12-28T07:18:27;8.02;;;2.85;;
22628;SDS011;11481;53.694;9.910;2023-12-28T07:20:55;10.27;;;2.83;;
22628;SDS011;11481;53.694;9.910;2023-12-28T07:23:22;7.25;;;2.90;;
22628;SDS011;11481;53.694;9.910;2023-12-28T07:25:49;7.85;;;2.78;;
22628;SDS011;11481;53.694;9.910;2023-12-28T07:28:17;7.97;;;3.05;;
22628;SDS011;11481;53.694;9.910;2023-12-28T07:30:43;8.35;;;2.80;;
22628;SDS011;11481;53.694;9.910;2023-12-28T07:33:11;6.45;;;3.00;;
22628;SDS011;11481;53.694;9.910;2023-12-28T07:35:38;6.72;;;2.30;;
22628;SDS011;11481;53.694;9.910;2023-12-28T07:38:05;6.13;;;2.90;;
22628;SDS011;11481;53.694;9.910;2023-12-28T07:40:32;9.05;;;2.95;;
22628;SDS011;11481;53.694;9.910;2023-12-28T07:42:59;10.05;;;3.35;;
22628;SDS011;11481;53.694;9.910;2023-12-28T07:45:28;8.27;;;2.92;;
22628;SDS011;11481;53.694;9.910;2023-12-28T07:47:55;11.20;;;2.88;;
22628;SDS011;11481;53.694;9.910;2023-12-28T07:50:22;6.55;;;2.88;;
22628;SDS011;11481;53.694;9.910;2023-12-28T07:52:50;7.45;;;2.75;;
22628;SDS011;11481;53.694;9.910;2023-12-28T07:55:17;5.70;;;2.65;;
22628;SDS011;11481;53.694;9.910;2023-12-28T07:57:44;8.60;;;2.78;;
22628;SDS011;11481;53.694;9.910;2023-12-28T08:00:14;6.50;;;2.55;;
22628;SDS011;11481;53.694;9.910;2023-12-28T08:02:41;7.45;;;2.85;;
22628;SDS011;11481;53.694;9.910;2023-12-28T08:05:08;6.47;;;2.38;;
22628;SDS011;11481;53.694;9.910;2023-12-28T08:07:35;6.47;;;2.50;;
22628;SDS011;11481;53.694;9.910;2023-12-28T08:10:03;4.35;;;2.10;;
22628;SDS011;11481;53.694;9.910;2023-12-28T08:12:30;8.32;;;2.67;;
22628;SDS011;11481;53.694;9.910;2023-12-28T08:14:57;7.03;;;2.33;;
22628;SDS011;11481;53.694;9.910;2023-12-28T08:17:25;6.93;;;2.72;;
22628;SDS011;11481;53.694;9.910;2023-12-28T08:19:52;6.25;;;2.90;;
22628;SDS011;11481;53.694;9.910;2023-12-28T08:22:19;4.22;;;2.35;;
22628;SDS011;11481;53.694;9.910;2023-12-28T08:24:46;7.15;;;2.22;;
22628;SDS011;11481;53.694;9.910;2023-12-28T08:27:13;5.93;;;1.88;;
22628;SDS011;11481;53.694;9.910;2023-12-28T08:29:40;9.95;;;2.60;;
22628;SDS011;11481;53.694;9.910;2023-12-28T08:32:11;6.57;;;2.35;;
22628;SDS011;11481;53.694;9.910;2023-12-28T08:34:38;8.40;;;2.67;;
22628;SDS011;11481;53.694;9.910;2023-12-28T08:37:06;8.45;;;2.20;;
22628;SDS011;11481;53.694;9.910;2023-12-28T08:39:33;5.65;;;2.10;;
22628;SDS011;11481;53.694;9.910;2023-12-28T08:42:00;5.18;;;1.73;;
22628;SDS011;11481;53.694;9.910;2023-12-28T08:44:27;12.68;;;2.53;;
22628;SDS011;11481;53.694;9.910;2023-12-28T08:46:54;5.57;;;2.05;;
22628;SDS011;11481;53.694;9.910;2023-12-28T08:49:21;8.82;;;1.75;;
22628;SDS011;11481;53.694;9.910;2023-12-28T08:51:49;10.82;;;2.67;;
22628;SDS011;11481;53.694;9.910;2023-12-28T08:54:19;8.88;;;2.80;;
22628;SDS011;11481;53.694;9.910;2023-12-28T08:56:46;10.45;;;2.65;;
22628;SDS011;11481;53.694;9.910;2023-12-28T08:59:18;7.30;;;2.17;;
22628;SDS011;11481;53.694;9.910;2023-12-28T09:01:45;7.10;;;2.28;;
22628;SDS011;11481;53.694;9.910;2023-12-28T09:04:12;9.85;;;2.88;;
22628;SDS011;11481;53.694;9.910;2023-12-28T09:06:40;8.13;;;2.03;;
22628;SDS011;11481;53.694;9.910;2023-12-28T09:09:07;7.88;;;2.10;;
22628;SDS011;11481;53.694;9.910;2023-12-28T09:11:34;11.90;;;2.25;;
22628;SDS011;11481;53.694;9.910;2023-12-28T09:14:01;9.55;;;2.22;;
22628;SDS011;11481;53.694;9.910;2023-12-28T09:16:28;6.43;;;1.90;;
22628;SDS011;11481;53.694;9.910;2023-12-28T09:18:55;7.15;;;2.15;;
22628;SDS011;11481;53.694;9.910;2023-12-28T09:21:23;11.93;;;2.50;;
22628;SDS011;11481;53.694;9.910;2023-12-28T09:23:52;10.10;;;2.17;;
22628;SDS011;11481;53.694;9.910;2023-12-28T09:26:19;8.35;;;1.80;;
22628;SDS011;11481;53.694;9.910;2023-12-28T09:28:46;7.82;;;1.90;;
22628;SDS011;11481;53.694;9.910;2023-12-28T09:31:13;7.32;;;2.00;;
22628;SDS011;11481;53.694;9.910;2023-12-28T09:33:41;9.82;;;2.00;;
22628;SDS011;11481;53.694;9.910;2023-12-28T09:36:08;7.25;;;1.73;;
22628;SDS011;11481;53.694;9.910;2023-12-28T09:38:35;9.82;;;2.20;;
22628;SDS011;11481;53.694;9.910;2023-12-28T09:41:12;8.93;;;2.40;;
22628;SDS011;11481;53.694;9.910;2023-12-28T09:44:00;9.60;;;2.30;;
22628;SDS011;11481;53.694;9.910;2023-12-28T09:46:40;6.10;;;1.70;;
22628;SDS011;11481;53.694;9.910;2023-12-28T09:49:08;7.40;;;2.35;;
22628;SDS011;11481;53.694;9.910;2023-12-28T09:51:36;9.68;;;1.98;;
22628;SDS011;11481;53.694;9.910;2023-12-28T09:54:03;6.45;;;2.03;;
22628;SDS011;11481;53.694;9.910;2023-12-28T09:56:31;10.63;;;2.22;;
22628;SDS011;11481;53.694;9.910;2023-12-28T09:58:59;6.85;;;2.05;;
22628;SDS011;11481;53.694;9.910;2023-12-28T10:01:28;6.32;;;1.95;;
22628;SDS011;11481;53.694;9.910;2023-12-28T10:03:55;7.10;;;1.73;;
22628;SDS011;11481;53.694;9.910;2023-12-28T10:06:22;14.95;;;2.40;;
22628;SDS011;11481;53.694;9.910;2023-12-28T10:08:49;10.90;;;2.08;;
22628;SDS011;11481;53.694;9.910;2023-12-28T10:11:20;8.43;;;1.92;;
22628;SDS011;11481;53.694;9.910;2023-12-28T10:13:48;7.55;;;2.03;;
22628;SDS011;11481;53.694;9.910;2023-12-28T10:16:15;8.95;;;2.00;;
22628;SDS011;11481;53.694;9.910;2023-12-28T10:18:43;6.32;;;1.77;;
22628;SDS011;11481;53.694;9.910;2023-12-28T10:21:11;11.63;;;2.20;;
22628;SDS011;11481;53.694;9.910;2023-12-28T10:23:38;11.02;;;1.70;;
22628;SDS011;11481;53.694;9.910;2023-12-28T10:26:05;7.07;;;1.70;;
22628;SDS011;11481;53.694;9.910;2023-12-28T10:28:33;7.97;;;1.92;;
22628;SDS011;11481;53.694;9.910;2023-12-28T10:31:01;10.88;;;2.05;;
22628;SDS011;11481;53.694;9.910;2023-12-28T10:33:33;12.43;;;1.98;;
22628;SDS011;11481;53.694;9.910;2023-12-28T10:36:07;7.45;;;2.15;;
22628;SDS011;11481;53.694;9.910;2023-12-28T10:38:37;8.90;;;1.67;;
22628;SDS011;11481;53.694;9.910;2023-12-28T10:41:06;8.55;;;1.77;;
22628;SDS011;11481;53.694;9.910;2023-12-28T10:44:01;7.60;;;1.90;;
22628;SDS011;11481;53.694;9.910;2023-12-28T10:46:36;10.75;;;2.13;;
22628;SDS011;11481;53.694;9.910;2023-12-28T10:49:10;6.60;;;1.80;;
22628;SDS011;11481;53.694;9.910;2023-12-28T10:51:40;11.05;;;1.77;;
22628;SDS011;11481;53.694;9.910;2023-12-28T10:56:59;10.70;;;2.20;;
22628;SDS011;11481;53.694;9.910;2023-12-28T10:59:42;9.55;;;1.65;;
22628;SDS011;11481;53.694;9.910;2023-12-28T11:02:38;9.63;;;2.00;;
22628;SDS011;11481;53.694;9.910;2023-12-28T11:05:08;11.05;;;1.65;;
22628;SDS011;11481;53.694;9.910;2023-12-28T11:07:36;7.88;;;1.60;;
22628;SDS011;11481;53.694;9.910;2023-12-28T11:10:05;14.52;;;2.53;;
22628;SDS011;11481;53.694;9.910;2023-12-28T11:12:33;11.68;;;2.65;;
22628;SDS011;11481;53.694;9.910;2023-12-28T11:15:01;10.55;;;2.00;;
22628;SDS011;11481;53.694;9.910;2023-12-28T11:17:31;12.10;;;2.08;;
22628;SDS011;11481;53.694;9.910;2023-12-28T11:20:00;11.18;;;2.08;;
22628;SDS011;11481;53.694;9.910;2023-12-28T11:22:27;8.68;;;1.85;;
22628;SDS011;11481;53.694;9.910;2023-12-28T11:24:56;9.90;;;1.88;;
22628;SDS011;11481;53.694;9.910;2023-12-28T11:27:23;12.35;;;2.22;;
22628;SDS011;11481;53.694;9.910;2023-12-28T11:29:51;10.70;;;2.10;;
22628;SDS011;11481;53.694;9.910;2023-12-28T11:32:19;10.68;;;1.83;;
22628;SDS011;11481;53.694;9.910;2023-12-28T11:34:55;11.70;;;2.35;;
22628;SDS011;11481;53.694;9.910;2023-12-28T11:37:24;11.65;;;2.03;;
22628;SDS011;11481;53.694;9.910;2023-12-28T11:39:53;11.85;;;2.45;;
22628;SDS011;11481;53.694;9.910;2023-12-28T11:42:22;10.63;;;2.42;;
22628;SDS011;11481;53.694;9.910;2023-12-28T11:44:53;15.65;;;2.80;;
22628;SDS011;11481;53.694;9.910;2023-12-28T11:47:22;10.88;;;2.40;;
22628;SDS011;11481;53.694;9.910;2023-12-28T11:49:51;15.48;;;2.60;;
22628;SDS011;11481;53.694;9.910;2023-12-28T11:52:29;9.38;;;2.05;;
22628;SDS011;11481;53.694;9.910;2023-12-28T11:54:57;10.35;;;2.22;;
22628;SDS011;11481;53.694;9.910;2023-12-28T11:57:27;10.15;;;1.88;;
22628;SDS011;11481;53.694;9.910;2023-12-28T11:59:58;10.43;;;2.13;;
22628;SDS011;11481;53.694;9.910;2023-12-28T12:02:26;16.15;;;2.45;;
22628;SDS011;11481;53.694;9.910;2023-12-28T12:04:54;7.55;;;2.30;;
22628;SDS011;11481;53.694;9.910;2023-12-28T12:07:21;10.30;;;2.90;;
22628;SDS011;11481;53.694;9.910;2023-12-28T12:09:48;11.82;;;2.30;;
22628;SDS011;11481;53.694;9.910;2023-12-28T12:12:16;11.77;;;2.60;;
22628;SDS011;11481;53.694;9.910;2023-12-28T12:14:43;12.45;;;2.15;;
22628;SDS011;11481;53.694;9.910;2023-12-28T12:17:10;12.48;;;2.35;;
22628;SDS011;11481;53.694;9.910;2023-12-28T12:19:38;11.52;;;2.35;;
22628;SDS011;11481;53.694;9.910;2023-12-28T12:22:06;7.53;;;1.90;;
22628;SDS011;11481;53.694;9.910;2023-12-28T12:24:33;15.70;;;2.45;;
22628;SDS011;11481;53.694;9.910;2023-12-28T12:27:02;14.38;;;2.55;;
22628;SDS011;11481;53.694;9.910;2023-12-28T12:29:29;13.98;;;2.40;;
22628;SDS011;11481;53.694;9.910;2023-12-28T12:31:56;10.82;;;2.30;;
22628;SDS011;11481;53.694;9.910;2023-12-28T12:34:24;8.55;;;2.13;;
22628;SDS011;11481;53.694;9.910;2023-12-28T12:36:52;20.17;;;2.50;;
22628;SDS011;11481;53.694;9.910;2023-12-28T12:39:24;15.32;;;2.53;;
22628;SDS011;11481;53.694;9.910;2023-12-28T12:41:52;10.40;;;2.50;;
22628;SDS011;11481;53.694;9.910;2023-12-28T12:44:19;15.30;;;2.20;;
22628;SDS011;11481;53.694;9.910;2023-12-28T12:46:47;11.00;;;2.00;;
22628;SDS011;11481;53.694;9.910;2023-12-28T12:49:15;26.10;;;2.58;;
22628;SDS011;11481;53.694;9.910;2023-12-28T12:51:44;10.93;;;1.70;;
22628;SDS011;11481;53.694;9.910;2023-12-28T12:54:11;12.50;;;2.20;;
22628;SDS011;11481;53.694;9.910;2023-12-28T12:56:38;16.73;;;2.83;;
22628;SDS011;11481;53.694;9.910;2023-12-28T12:59:12;12.32;;;2.10;;
22628;SDS011;11481;53.694;9.910;2023-12-28T13:01:44;12.40;;;2.70;;
22628;SDS011;11481;53.694;9.910;2023-12-28T13:04:18;16.30;;;2.40;;
22628;SDS011;11481;53.694;9.910;2023-12-28T13:06:48;14.65;;;2.50;;
22628;SDS011;11481;53.694;9.910;2023-12-28T13:09:16;8.30;;;2.30;;
22628;SDS011;11481;53.694;9.910;2023-12-28T13:11:43;13.13;;;2.22;;
22628;SDS011;11481;53.694;9.910;2023-12-28T13:14:10;9.00;;;2.20;;
22628;SDS011;11481;53.694;9.910;2023-12-28T13:16:37;12.55;;;2.72;;
22628;SDS011;11481;53.694;9.910;2023-12-28T13:19:04;12.55;;;2.35;;
22628;SDS011;11481;53.694;9.910;2023-12-28T13:21:31;9.88;;;2.35;;
22628;SDS011;11481;53.694;9.910;2023-12-28T13:23:58;12.40;;;1.92;;
22628;SDS011;11481;53.694;9.910;2023-12-28T13:26:27;12.85;;;2.63;;
22628;SDS011;11481;53.694;9.910;2023-12-28T13:28:54;9.32;;;2.88;;
22628;SDS011;11481;53.694;9.910;2023-12-28T13:31:22;12.02;;;2.33;;
22628;SDS011;11481;53.694;9.910;2023-12-28T13:33:51;11.90;;;2.10;;
22628;SDS011;11481;53.694;9.910;2023-12-28T13:36:18;17.75;;;2.53;;
22628;SDS011;11481;53.694;9.910;2023-12-28T13:38:45;7.57;;;2.08;;
22628;SDS011;11481;53.694;9.910;2023-12-28T13:41:12;10.05;;;2.38;;
22628;SDS011;11481;53.694;9.910;2023-12-28T13:43:39;12.57;;;2.60;;
22628;SDS011;11481;53.694;9.910;2023-12-28T13:46:06;11.27;;;2.15;;
22628;SDS011;11481;53.694;9.910;2023-12-28T13:48:33;14.75;;;1.90;;
22628;SDS011;11481;53.694;9.910;2023-12-28T13:51:01;12.85;;;2.20;;
22628;SDS011;11481;53.694;9.910;2023-12-28T13:53:28;11.75;;;2.17;;
22628;SDS011;11481;53.694;9.910;2023-12-28T13:55:55;7.60;;;2.15;;
22628;SDS011;11481;53.694;9.910;2023-12-28T13:58:22;10.70;;;2.17;;
22628;SDS011;11481;53.694;9.910;2023-12-28T14:00:49;10.95;;;2.00;;
22628;SDS011;11481;53.694;9.910;2023-12-28T14:03:16;12.35;;;2.35;;
22628;SDS011;11481;53.694;9.910;2023-12-28T14:05:43;8.10;;;1.75;;
22628;SDS011;11481;53.694;9.910;2023-12-28T14:08:10;7.70;;;2.10;;
22628;SDS011;11481;53.694;9.910;2023-12-28T14:10:37;11.60;;;2.33;;
22628;SDS011;11481;53.694;9.910;2023-12-28T14:13:04;14.55;;;2.47;;
22628;SDS011;11481;53.694;9.910;2023-12-28T14:15:32;7.57;;;1.90;;
22628;SDS011;11481;53.694;9.910;2023-12-28T14:17:59;15.88;;;2.35;;
22628;SDS011;11481;53.694;9.910;2023-12-28T14:20:26;13.23;;;2.50;;
22628;SDS011;11481;53.694;9.910;2023-12-28T14:22:54;17.75;;;2.85;;
22628;SDS011;11481;53.694;9.910;2023-12-28T14:25:22;20.88;;;2.97;;
22628;SDS011;11481;53.694;9.910;2023-12-28T14:27:49;10.60;;;2.38;;
22628;SDS011;11481;53.694;9.910;2023-12-28T14:30:17;9.65;;;2.13;;
22628;SDS011;11481;53.694;9.910;2023-12-28T14:32:45;12.48;;;3.10;;
22628;SDS011;11481;53.694;9.910;2023-12-28T14:35:12;6.13;;;1.70;;
22628;SDS011;11481;53.694;9.910;2023-12-28T14:37:45;10.70;;;2.63;;
22628;SDS011;11481;53.694;9.910;2023-12-28T14:40:12;11.43;;;2.28;;
22628;SDS011;11481;53.694;9.910;2023-12-28T14:42:39;10.85;;;1.88;;
22628;SDS011;11481;53.694;9.910;2023-12-28T14:45:07;9.57;;;2.58;;
22628;SDS011;11481;53.694;9.910;2023-12-28T14:47:34;14.35;;;2.25;;
22628;SDS011;11481;53.694;9.910;2023-12-28T14:50:02;14.52;;;2.58;;
22628;SDS011;11481;53.694;9.910;2023-12-28T14:52:34;12.65;;;2.47;;
22628;SDS011;11481;53.694;9.910;2023-12-28T14:55:01;8.20;;;1.85;;
22628;SDS011;11481;53.694;9.910;2023-12-28T14:57:28;12.20;;;2.25;;
22628;SDS011;11481;53.694;9.910;2023-12-28T14:59:54;13.77;;;2.25;;